KLUA Airport (Luray Caverns) Information

FAA: LUA - ICAO: KLUA

KLUA Airport Location

State Virginia
County Page
City Luray
KLUA Airport is 2 miles west of Luray, VA.
Latitude 38-40-00.1577N
Longitude 078-30-03.0061W
Elevation 902ft

KLUA Airport METARs

METAR KLUA 161755Z AUTO 01007KT 10SM OVC019 26/20 A3016 RMK AO2
Altimeter 30.16"
Temperature 26.0°C (78.8°F)
Wind 10° at 7KT
Clouds overcast at 1,900ft
Visibility 10.0mi
Time observed: 2021-09-16T17:55:00Z

KLUA Airport Details

Status Operational
Activation July 1971
Ownership Public
Usage Public
Chart WASHINGTON
ATC on-site No
Beacon schedule sunset-sunrise
Beacon color clear green

KLUA Airport Contacts

Owner LURAY & PAGE CO. AIRPORT AUTHORITY
Owner address 270 CIRCLE VIEW ROAD, LURAY, VA 22835
Owner phone (540) 743-6070
Manager RICK CANTLEY
Manager address 113 MAIN ST, HURT, VA 24563
Manager phone 434-324-7242

KLUA Airport (Luray Caverns) Radio Frequencies

KLUA (Airport) Radio Frequencies

UNICOM 122.8
Common traffic advisory frequency (CTAF) 122.8